createdAt,value
2018-09-04T00:00:59.262Z,65.23
2018-09-04T00:03:29.286Z,65.18
2018-09-04T00:06:00.503Z,65.46
2018-09-04T00:08:29.719Z,65.29
2018-09-04T00:10:59.171Z,65.10
2018-09-04T00:13:28.886Z,65.40
2018-09-04T00:15:58.231Z,65.64
2018-09-04T00:18:27.994Z,65.16
2018-09-04T00:20:57.000Z,65.59
2018-09-04T00:23:26.461Z,65.48
2018-09-04T00:25:55.930Z,65.42
2018-09-04T00:28:25.713Z,65.31
2018-09-04T00:30:55.042Z,65.77
2018-09-04T00:33:24.835Z,65.83
2018-09-04T00:35:54.459Z,65.28
2018-09-04T00:38:23.525Z,65.38
2018-09-04T00:40:52.735Z,65.66
2018-09-04T00:43:23.069Z,65.83
2018-09-04T00:45:52.805Z,65.78
2018-09-04T00:48:22.187Z,65.41
2018-09-04T00:50:52.172Z,65.27
2018-09-04T00:53:21.506Z,65.39
2018-09-04T00:55:50.536Z,66.24
2018-09-04T00:58:20.178Z,66.04
2018-09-04T01:00:49.202Z,66.05
2018-09-04T01:03:19.311Z,66.06
2018-09-04T01:05:49.218Z,65.95
2018-09-04T01:08:18.105Z,65.92
2018-09-04T01:10:48.547Z,65.92
2018-09-04T01:13:17.708Z,65.99
2018-09-04T01:15:46.602Z,65.76
2018-09-04T01:18:16.330Z,65.73
2018-09-04T01:20:45.209Z,65.38
2018-09-04T01:23:14.772Z,65.43
2018-09-04T01:25:44.094Z,65.23
2018-09-04T01:28:13.860Z,65.40
2018-09-04T01:30:42.959Z,66.01
2018-09-04T01:33:12.153Z,65.38
2018-09-04T01:35:41.329Z,65.12
2018-09-04T01:38:10.115Z,65.52
2018-09-04T01:40:39.735Z,65.34
2018-09-04T01:43:09.351Z,65.87
2018-09-04T01:45:38.613Z,66.00
2018-09-04T01:48:08.084Z,65.71
2018-09-04T01:50:38.626Z,65.48
2018-09-04T01:53:07.662Z,66.00
2018-09-04T01:55:39.257Z,66.09
2018-09-04T01:58:08.321Z,65.49
2018-09-04T02:00:38.095Z,65.74
2018-09-04T02:03:08.241Z,65.78
2018-09-04T02:05:37.135Z,66.15
2018-09-04T02:08:06.179Z,65.73
2018-09-04T02:10:37.021Z,65.78
2018-09-04T02:13:06.068Z,65.88
2018-09-04T02:15:35.046Z,66.52
2018-09-04T02:18:04.639Z,65.98
2018-09-04T02:20:35.157Z,65.98
2018-09-04T02:23:05.185Z,66.57
2018-09-04T02:25:34.291Z,66.04
2018-09-04T02:28:03.839Z,65.91
2018-09-04T02:30:33.785Z,65.63
2018-09-04T02:33:03.596Z,66.02
2018-09-04T02:35:33.865Z,65.69
2018-09-04T02:38:04.274Z,66.30
2018-09-04T02:40:33.782Z,65.65
2018-09-04T02:43:04.133Z,65.79
2018-09-04T02:45:34.161Z,66.33
2018-09-04T02:48:04.551Z,65.84
2018-09-04T02:50:33.826Z,65.88
2018-09-04T02:53:03.365Z,65.85
2018-09-04T02:55:32.589Z,66.31
2018-09-04T02:58:01.830Z,66.38
2018-09-04T03:00:31.663Z,66.52
2018-09-04T03:03:00.934Z,66.37
2018-09-04T03:05:31.362Z,66.63
2018-09-04T03:08:01.586Z,66.17
2018-09-04T03:10:31.242Z,66.73
2018-09-04T03:13:00.824Z,66.75
2018-09-04T03:15:31.355Z,66.61
2018-09-04T03:18:00.403Z,66.45
2018-09-04T03:20:30.401Z,66.79
2018-09-04T03:23:00.428Z,66.27
2018-09-04T03:25:29.852Z,66.74
2018-09-04T03:27:58.932Z,66.33
2018-09-04T03:30:28.534Z,66.27
2018-09-04T03:32:58.270Z,66.76
2018-09-04T03:35:27.927Z,67.05
2018-09-04T03:37:57.711Z,66.84
2018-09-04T03:40:26.914Z,66.92
2018-09-04T03:42:56.478Z,66.46
2018-09-04T03:45:25.762Z,66.91
2018-09-04T03:47:55.589Z,66.15
2018-09-04T03:50:25.182Z,66.34
2018-09-04T03:52:54.098Z,66.97
2018-09-04T03:55:23.683Z,66.68
2018-09-04T03:57:52.887Z,66.49
2018-09-04T04:00:21.931Z,66.57
2018-09-04T04:02:50.907Z,66.49
2018-09-04T04:05:21.028Z,66.92
2018-09-04T04:07:50.581Z,66.85
2018-09-04T04:10:19.933Z,66.75
2018-09-04T04:12:49.030Z,66.44
2018-09-04T04:15:19.501Z,66.67
2018-09-04T04:17:48.839Z,66.85
2018-09-04T04:20:18.910Z,67.39
2018-09-04T04:22:48.560Z,67.40
2018-09-04T04:25:18.335Z,67.70
2018-09-04T04:27:47.763Z,66.99
2018-09-04T04:30:16.686Z,67.14
2018-09-04T04:32:46.923Z,67.77
2018-09-04T04:35:16.250Z,67.56
2018-09-04T04:37:46.078Z,67.87
2018-09-04T04:40:15.060Z,67.42
2018-09-04T04:42:44.189Z,67.53
2018-09-04T04:45:13.216Z,67.81
2018-09-04T04:47:47.898Z,67.37
2018-09-04T04:50:18.127Z,68.19
2018-09-04T04:52:47.559Z,67.60
2018-09-04T04:55:17.824Z,67.33
2018-09-04T04:57:46.725Z,67.58
2018-09-04T05:00:17.216Z,67.76
2018-09-04T05:02:47.152Z,67.71
2018-09-04T05:05:17.082Z,68.17
2018-09-04T05:07:47.037Z,68.52
2018-09-04T05:10:16.652Z,67.88
2018-09-04T05:12:46.748Z,67.89
2018-09-04T05:15:17.085Z,67.23
2018-09-04T05:17:47.079Z,67.26
2018-09-04T05:20:23.108Z,67.48
2018-09-04T05:22:52.149Z,67.80
2018-09-04T05:25:21.538Z,67.53
2018-09-04T05:27:51.457Z,67.98
2018-09-04T05:30:20.432Z,67.65
2018-09-04T05:33:01.325Z,68.07
2018-09-04T05:35:34.567Z,68.26
2018-09-04T05:38:04.522Z,68.64
2018-09-04T05:40:33.543Z,68.46
2018-09-04T05:43:04.701Z,68.26
2018-09-04T05:45:35.107Z,68.33
2018-09-04T05:48:07.782Z,68.60
2018-09-04T05:50:38.674Z,67.93
2018-09-04T05:53:07.876Z,67.75
2018-09-04T05:55:37.465Z,68.23
2018-09-04T05:58:07.759Z,67.37
2018-09-04T06:00:41.992Z,67.61
2018-09-04T06:03:11.655Z,67.76
2018-09-04T06:05:42.026Z,66.99
2018-09-04T06:08:11.592Z,67.01
2018-09-04T06:10:41.315Z,66.31
2018-09-04T06:13:10.569Z,66.50
2018-09-04T06:15:40.942Z,67.61
2018-09-04T06:18:10.536Z,67.16
2018-09-04T06:20:39.573Z,67.66
2018-09-04T06:23:09.148Z,66.78
2018-09-04T06:25:38.719Z,67.54
2018-09-04T06:28:08.059Z,66.93
2018-09-04T06:30:37.658Z,67.45
2018-09-04T06:33:07.051Z,67.27
2018-09-04T06:35:36.551Z,68.05
2018-09-04T06:38:05.856Z,67.84
2018-09-04T06:40:35.723Z,67.29
2018-09-04T06:43:05.409Z,67.77
2018-09-04T06:45:34.988Z,66.82
2018-09-04T06:48:04.583Z,67.25
2018-09-04T06:50:34.668Z,65.92
2018-09-04T06:53:04.285Z,66.95
2018-09-04T06:55:33.343Z,66.12
2018-09-04T06:58:03.879Z,65.40
2018-09-04T07:00:33.465Z,65.57
2018-09-04T07:03:05.348Z,65.66
2018-09-04T07:05:34.743Z,64.84
2018-09-04T07:08:03.806Z,63.16
2018-09-04T07:10:33.014Z,63.78
2018-09-04T07:13:02.483Z,64.39
2018-09-04T07:15:32.555Z,62.63
2018-09-04T07:18:02.335Z,61.46
2018-09-04T07:20:32.326Z,60.72
2018-09-04T07:23:02.199Z,59.58
2018-09-04T07:25:31.863Z,60.10
2018-09-04T07:28:01.339Z,60.35
2018-09-04T07:30:30.446Z,61.35
2018-09-04T07:33:00.450Z,59.93
2018-09-04T07:35:30.621Z,60.46
2018-09-04T07:38:00.623Z,59.56
2018-09-04T07:40:30.188Z,60.48
2018-09-04T07:42:59.589Z,61.10
2018-09-04T07:45:34.685Z,61.41
2018-09-04T07:48:06.125Z,61.55
2018-09-04T07:50:36.406Z,62.09
2018-09-04T07:53:06.488Z,61.62
2018-09-04T07:55:36.236Z,62.20
2018-09-04T07:58:06.244Z,61.68
2018-09-04T08:00:36.462Z,61.99
2018-09-04T08:03:06.803Z,59.81
2018-09-04T08:05:36.982Z,59.28
2018-09-04T08:08:05.915Z,58.87
2018-09-04T08:10:35.847Z,58.82
2018-09-04T08:13:07.671Z,59.17
2018-09-04T08:15:37.572Z,58.43
2018-09-04T08:18:06.953Z,59.26
2018-09-04T08:20:36.491Z,58.97
2018-09-04T08:23:08.556Z,59.09
2018-09-04T08:25:39.202Z,57.12
2018-09-04T08:28:09.887Z,56.77
2018-09-04T08:30:39.702Z,56.73
2018-09-04T08:33:09.788Z,55.68
2018-09-04T08:35:39.533Z,54.08
2018-09-04T08:38:09.456Z,55.11
2018-09-04T08:40:40.402Z,54.50
2018-09-04T08:43:09.668Z,52.93
2018-09-04T08:45:41.305Z,50.53
2018-09-04T08:48:16.479Z,49.89
2018-09-04T08:50:46.178Z,46.13
2018-09-04T08:53:17.836Z,48.29
2018-09-04T08:55:47.985Z,45.26
2018-09-04T08:58:18.977Z,45.01
2018-09-04T09:00:49.433Z,44.75
2018-09-04T09:03:19.198Z,43.68
2018-09-04T09:05:49.005Z,42.46
2018-09-04T09:08:22.176Z,41.16
2018-09-04T09:10:51.066Z,42.97
2018-09-04T09:13:20.335Z,41.27
2018-09-04T09:15:49.357Z,40.43
2018-09-04T09:18:18.871Z,41.59
2018-09-04T09:20:47.651Z,42.88
2018-09-04T09:23:16.395Z,42.55
2018-09-04T09:25:45.222Z,44.58
2018-09-04T09:28:16.462Z,44.21
2018-09-04T09:30:47.746Z,45.47
2018-09-04T09:33:17.083Z,44.46
2018-09-04T09:35:46.428Z,45.78
2018-09-04T09:38:15.782Z,46.85
2018-09-04T09:40:50.246Z,46.98
2018-09-04T09:43:20.079Z,47.24
2018-09-04T09:45:49.900Z,46.57
2018-09-04T09:48:21.454Z,46.62
2018-09-04T09:50:52.737Z,46.47
2018-09-04T09:53:22.692Z,46.47
2018-09-04T09:55:51.347Z,45.15
2018-09-04T09:58:20.111Z,47.36
2018-09-04T10:00:53.224Z,46.61
2018-09-04T10:03:27.871Z,44.90
2018-09-04T10:05:56.996Z,47.06
2018-09-04T10:08:26.423Z,48.50
2018-09-04T10:10:55.142Z,45.87
2018-09-04T10:13:23.929Z,47.39
2018-09-04T10:15:52.901Z,46.93
2018-09-04T10:18:22.530Z,45.95
2018-09-04T10:20:52.449Z,45.46
2018-09-04T10:23:21.974Z,45.95
2018-09-04T10:25:51.686Z,44.74
2018-09-04T10:28:21.599Z,43.33
2018-09-04T10:30:50.913Z,42.32
2018-09-04T10:33:19.988Z,40.83
2018-09-04T10:35:50.220Z,38.66
2018-09-04T10:38:24.456Z,39.29
2018-09-04T10:40:55.023Z,38.11
2018-09-04T10:43:29.085Z,41.13
2018-09-04T10:46:05.236Z,42.15
2018-09-04T10:48:35.411Z,41.57
2018-09-04T10:51:05.157Z,41.63
2018-09-04T10:53:35.357Z,41.81
2018-09-04T10:56:04.703Z,41.52
2018-09-04T10:58:35.277Z,41.99
2018-09-04T11:01:04.660Z,41.89
2018-09-04T11:03:33.981Z,41.40
2018-09-04T11:06:03.448Z,39.79
2018-09-04T11:08:32.436Z,38.62
2018-09-04T11:11:03.328Z,38.70
2018-09-04T11:13:32.750Z,38.13
2018-09-04T11:16:02.117Z,38.34
2018-09-04T11:18:30.966Z,38.97
2018-09-04T11:20:59.992Z,39.10
2018-09-04T11:23:29.082Z,41.03
2018-09-04T11:25:58.742Z,42.95
2018-09-04T11:28:28.298Z,42.21
2018-09-04T11:30:57.176Z,40.18
2018-09-04T11:33:27.327Z,41.79
2018-09-04T11:35:57.144Z,41.73
2018-09-04T11:38:26.188Z,40.22
2018-09-04T11:40:55.918Z,40.61
2018-09-04T11:43:25.133Z,37.98
2018-09-04T11:45:54.120Z,37.91
2018-09-04T11:48:23.385Z,37.87
2018-09-04T11:50:53.054Z,37.06
2018-09-04T11:53:22.509Z,36.27
2018-09-04T11:55:51.576Z,34.23
2018-09-04T11:58:20.858Z,33.19
2018-09-04T12:00:50.365Z,32.52
2018-09-04T12:03:19.460Z,30.59
2018-09-04T12:05:48.224Z,29.85
2018-09-04T12:08:17.277Z,28.53
2018-09-04T12:10:46.836Z,26.28
2018-09-04T12:13:20.271Z,25.33
2018-09-04T12:15:49.371Z,25.45
2018-09-04T12:18:19.145Z,27.13
2018-09-04T12:20:52.596Z,30.86
2018-09-04T12:23:21.867Z,32.53
2018-09-04T12:25:57.925Z,33.63
2018-09-04T12:28:27.735Z,35.93
2018-09-04T12:30:57.946Z,31.43
2018-09-04T12:33:27.976Z,26.59
2018-09-04T12:35:57.251Z,23.14
2018-09-04T12:38:30.800Z,19.39
2018-09-04T12:41:04.490Z,19.47
2018-09-04T12:43:33.755Z,19.57
2018-09-04T12:46:03.157Z,19.66
2018-09-04T12:48:32.773Z,19.84
2018-09-04T12:51:02.750Z,21.93
2018-09-04T12:53:32.674Z,21.85
2018-09-04T12:56:02.015Z,18.61
2018-09-04T12:58:31.494Z,20.98
2018-09-04T13:01:01.049Z,30.69
2018-09-04T13:03:30.351Z,23.39
2018-09-04T13:05:59.244Z,31.79
2018-09-04T13:08:30.788Z,31.11
2018-09-04T13:11:00.300Z,30.18
2018-09-04T13:13:29.504Z,32.96
2018-09-04T13:15:59.935Z,34.88
2018-09-04T13:18:30.551Z,34.72
2018-09-04T13:21:02.340Z,35.44
2018-09-04T13:23:33.022Z,36.84
2018-09-04T13:26:02.735Z,37.14
2018-09-04T13:28:32.935Z,38.92
2018-09-04T13:31:01.872Z,40.36
2018-09-04T13:33:31.100Z,38.61
2018-09-04T13:36:00.447Z,38.15
2018-09-04T13:38:30.102Z,37.18
2018-09-04T13:41:04.314Z,37.87
2018-09-04T13:43:33.715Z,38.12
2018-09-04T13:46:03.429Z,39.14
2018-09-04T13:48:34.506Z,40.46
2018-09-04T13:51:04.855Z,40.53
2018-09-04T13:53:34.221Z,40.20
2018-09-04T13:56:03.797Z,40.38
2018-09-04T13:58:34.199Z,41.31
2018-09-04T14:01:03.113Z,41.43
2018-09-04T14:03:32.173Z,40.42
2018-09-04T14:06:01.254Z,39.68
2018-09-04T14:08:33.095Z,39.37
2018-09-04T14:11:02.230Z,40.01
2018-09-04T14:13:33.122Z,39.86
2018-09-04T14:16:06.555Z,41.04
2018-09-04T14:18:36.739Z,41.39
2018-09-04T14:21:06.790Z,41.06
2018-09-04T14:23:36.435Z,40.45
2018-09-04T14:26:05.560Z,40.60
2018-09-04T14:29:08.417Z,38.72
2018-09-04T14:31:30.486Z,40.25
2018-09-04T14:33:59.502Z,39.45
2018-09-04T14:36:28.786Z,38.87
2018-09-04T14:38:59.200Z,38.81
2018-09-04T14:41:28.646Z,39.65
2018-09-04T14:43:58.109Z,40.05
2018-09-04T14:46:27.243Z,40.30
2018-09-04T14:48:56.589Z,40.90
2018-09-04T14:51:27.240Z,41.35
2018-09-04T14:53:57.772Z,41.75
2018-09-04T14:56:27.774Z,41.35
2018-09-04T14:58:57.702Z,40.57
2018-09-04T15:01:27.023Z,38.58
2018-09-04T15:03:55.831Z,38.31
2018-09-04T15:06:26.954Z,38.15
2018-09-04T15:08:59.421Z,37.45
2018-09-04T15:11:29.942Z,35.30
2018-09-04T15:14:08.719Z,34.98
2018-09-04T15:16:41.508Z,35.80
2018-09-04T15:19:11.384Z,35.86
2018-09-04T15:21:40.378Z,35.91
2018-09-04T15:24:16.114Z,36.92
2018-09-04T15:26:48.553Z,36.23
2018-09-04T15:29:20.349Z,35.28
2018-09-04T15:31:50.830Z,35.10
2018-09-04T15:34:21.201Z,36.24
2018-09-04T15:36:52.459Z,35.45
2018-09-04T15:39:21.957Z,36.74
2018-09-04T15:41:56.824Z,37.33
2018-09-04T15:44:27.856Z,37.70
2018-09-04T15:46:58.414Z,38.21
2018-09-04T15:49:33.292Z,37.45
2018-09-04T15:52:04.361Z,39.32
2018-09-04T15:54:34.748Z,40.09
2018-09-04T15:57:05.373Z,39.80
2018-09-04T15:59:34.987Z,38.35
2018-09-04T16:02:04.499Z,38.87
2018-09-04T16:04:40.555Z,39.40
2018-09-04T16:07:10.907Z,39.16
2018-09-04T16:09:42.310Z,38.82
2018-09-04T16:12:14.860Z,38.51
2018-09-04T16:14:43.861Z,37.64
2018-09-04T16:17:14.103Z,37.56
2018-09-04T16:19:47.125Z,37.36
2018-09-04T16:22:19.820Z,37.76
2018-09-04T16:24:51.829Z,37.97
2018-09-04T16:27:25.787Z,38.05
2018-09-04T16:29:55.180Z,39.40
2018-09-04T16:32:34.912Z,38.51
2018-09-04T16:35:08.590Z,38.21
2018-09-04T16:37:40.682Z,38.73
2018-09-04T16:40:12.698Z,38.50
2018-09-04T16:42:46.288Z,38.65
2018-09-04T16:45:17.362Z,37.52
2018-09-04T16:47:46.833Z,38.05
2018-09-04T16:50:15.887Z,39.43
2018-09-04T16:52:45.408Z,39.50
2018-09-04T16:55:15.255Z,38.72
2018-09-04T16:57:44.929Z,38.89
2018-09-04T17:00:15.788Z,39.46
2018-09-04T17:02:46.323Z,39.75
2018-09-04T17:05:15.446Z,41.20
2018-09-04T17:07:44.522Z,40.33
2018-09-04T17:10:13.659Z,40.43
2018-09-04T17:12:42.560Z,40.48
2018-09-04T17:15:11.312Z,40.04
2018-09-04T17:17:40.031Z,40.46
2018-09-04T17:20:09.503Z,39.78
2018-09-04T17:22:38.305Z,40.53
2018-09-04T17:25:07.445Z,40.19
2018-09-04T17:27:36.255Z,41.32
2018-09-04T17:30:05.370Z,41.31
2018-09-04T17:32:35.497Z,41.36
2018-09-04T17:35:05.212Z,40.56
2018-09-04T17:37:34.974Z,40.74
2018-09-04T17:40:05.649Z,40.75
2018-09-04T17:42:34.947Z,41.44
2018-09-04T17:45:04.549Z,41.79
2018-09-04T17:47:33.765Z,41.54
2018-09-04T17:50:03.769Z,41.26
2018-09-04T17:52:33.431Z,41.82
2018-09-04T17:55:02.586Z,41.18
2018-09-04T17:57:32.817Z,40.83
2018-09-04T18:00:02.706Z,41.69
2018-09-04T18:02:31.677Z,41.85
2018-09-04T18:05:02.215Z,42.50
2018-09-04T18:07:31.461Z,42.96
2018-09-04T18:10:01.589Z,43.01
2018-09-04T18:12:31.482Z,43.54
2018-09-04T18:15:00.658Z,43.19
2018-09-04T18:17:30.075Z,44.11
2018-09-04T18:20:00.182Z,45.20
2018-09-04T18:22:29.453Z,45.42
2018-09-04T18:24:59.292Z,45.92
2018-09-04T18:27:29.286Z,47.04
2018-09-04T18:29:58.892Z,47.40
2018-09-04T18:32:28.385Z,47.42
2018-09-04T18:34:58.068Z,48.12
2018-09-04T18:37:30.745Z,48.27
2018-09-04T18:40:00.959Z,49.48
2018-09-04T18:42:35.565Z,49.41
2018-09-04T18:45:06.299Z,50.34
2018-09-04T18:47:37.899Z,50.81
2018-09-04T18:50:07.379Z,50.62
2018-09-04T18:52:36.959Z,51.20
2018-09-04T18:55:08.451Z,51.17
2018-09-04T18:57:38.487Z,52.02
2018-09-04T19:00:08.438Z,51.46
2018-09-04T19:02:38.489Z,51.88
2018-09-04T19:05:07.830Z,52.75
2018-09-04T19:07:37.357Z,52.32
2018-09-04T19:10:08.061Z,52.90
2018-09-04T19:12:37.063Z,52.88
2018-09-04T19:15:08.303Z,53.29
2018-09-04T19:17:38.609Z,53.43
2018-09-04T19:20:08.507Z,53.85
2018-09-04T19:22:37.555Z,54.26
2018-09-04T19:25:08.428Z,53.97
2018-09-04T19:27:37.760Z,54.35
2018-09-04T19:30:08.375Z,55.09
2018-09-04T19:32:38.148Z,55.35
2018-09-04T19:35:08.281Z,54.76
2018-09-04T19:37:38.662Z,54.90
2018-09-04T19:40:08.781Z,55.50
2018-09-04T19:42:39.640Z,55.65
2018-09-04T19:45:09.714Z,56.03
2018-09-04T19:47:39.799Z,56.25
2018-09-04T19:50:10.678Z,56.38
2018-09-04T19:52:40.023Z,57.11
2018-09-04T19:55:10.635Z,57.46
2018-09-04T19:57:39.586Z,57.18
2018-09-04T20:00:09.993Z,57.28
2018-09-04T20:02:39.784Z,57.43
2018-09-04T20:05:10.751Z,57.31
2018-09-04T20:07:39.793Z,57.74
2018-09-04T20:10:09.141Z,58.47
2018-09-04T20:12:39.023Z,58.50
2018-09-04T20:15:09.150Z,58.30
2018-09-04T20:17:38.917Z,58.61
2018-09-04T20:20:09.625Z,58.64
2018-09-04T20:22:39.300Z,58.66
2018-09-04T20:25:08.389Z,58.68
2018-09-04T20:27:37.454Z,59.23
2018-09-04T20:30:07.663Z,59.28
2018-09-04T20:32:36.669Z,58.80
2018-09-04T20:35:06.775Z,59.19
2018-09-04T20:37:36.446Z,59.68
2018-09-04T20:40:05.593Z,59.35
2018-09-04T20:42:35.351Z,59.32
2018-09-04T20:45:05.005Z,59.88
2018-09-04T20:47:34.948Z,59.55
2018-09-04T20:50:04.376Z,59.92
2018-09-04T20:52:34.199Z,59.80
2018-09-04T20:55:04.319Z,60.58
2018-09-04T20:57:33.172Z,60.64
2018-09-04T21:00:14.714Z,60.14
2018-09-04T21:02:55.336Z,60.70
2018-09-04T21:05:35.909Z,60.38
2018-09-04T21:08:18.826Z,60.75
2018-09-04T21:10:49.082Z,60.82
2018-09-04T21:13:19.026Z,61.17
2018-09-04T21:15:48.787Z,61.24
2018-09-04T21:18:19.125Z,61.55
2018-09-04T21:20:49.197Z,61.47
2018-09-04T21:23:18.416Z,61.89
2018-09-04T21:25:48.173Z,62.43
2018-09-04T21:28:17.692Z,61.71
2018-09-04T21:30:47.068Z,62.88
2018-09-04T21:33:16.236Z,62.52
2018-09-04T21:35:53.622Z,63.14
2018-09-04T21:38:28.431Z,62.82
2018-09-04T21:40:58.049Z,63.38
2018-09-04T21:43:29.957Z,63.03
2018-09-04T21:46:03.924Z,63.66
2018-09-04T21:48:36.906Z,63.87
2018-09-04T21:51:12.354Z,64.20
2018-09-04T21:53:42.529Z,64.18
2018-09-04T21:56:13.227Z,63.92
2018-09-04T21:58:47.288Z,63.76
2018-09-04T22:01:18.020Z,64.56
2018-09-04T22:03:47.917Z,64.31
2018-09-04T22:06:18.022Z,64.27
2018-09-04T22:08:57.206Z,64.51
2018-09-04T22:11:35.579Z,65.32
2018-09-04T22:14:09.367Z,65.52
2018-09-04T22:16:42.050Z,65.34
2018-09-04T22:19:12.070Z,65.78
2018-09-04T22:21:46.818Z,65.85
2018-09-04T22:24:16.826Z,65.67
2018-09-04T22:26:45.523Z,65.57
2018-09-04T22:29:16.170Z,65.70
2018-09-04T22:31:46.353Z,65.93
2018-09-04T22:34:20.865Z,66.48
2018-09-04T22:36:58.713Z,66.21
2018-09-04T22:39:27.828Z,66.25
2018-09-04T22:41:57.340Z,66.74
2018-09-04T22:44:35.240Z,66.98
2018-09-04T22:47:06.643Z,67.33
2018-09-04T22:49:37.475Z,67.12
2018-09-04T22:52:08.244Z,67.05
2018-09-04T22:54:36.981Z,67.08
2018-09-04T22:57:07.565Z,67.39
2018-09-04T22:59:37.159Z,67.31
2018-09-04T23:02:07.199Z,67.48
2018-09-04T23:04:36.089Z,68.03
2018-09-04T23:07:09.500Z,68.31
2018-09-04T23:09:39.082Z,68.29
2018-09-04T23:12:08.347Z,68.36
2018-09-04T23:14:38.691Z,68.01
2018-09-04T23:17:09.463Z,68.38
2018-09-04T23:19:40.538Z,68.23
2018-09-04T23:22:11.674Z,68.97
2018-09-04T23:24:41.711Z,69.20
2018-09-04T23:27:17.660Z,69.19
2018-09-04T23:29:47.121Z,69.43
2018-09-04T23:32:16.292Z,69.05
2018-09-04T23:34:45.208Z,69.34
2018-09-04T23:37:14.635Z,69.97
2018-09-04T23:39:43.918Z,69.49
2018-09-04T23:42:13.381Z,69.86
2018-09-04T23:44:43.176Z,69.84
2018-09-04T23:47:12.269Z,70.15
2018-09-04T23:49:42.231Z,70.10
2018-09-04T23:52:11.560Z,70.75
2018-09-04T23:54:40.659Z,70.53
2018-09-04T23:57:10.535Z,71.28
2018-09-04T23:59:39.778Z,70.62
